KMOP/MOP METAR and TAF weather

Enter ICAO airport designator
Station Type Date Time Source
KMOP METAR 2019/12/06 01:55 UTC NOAA

KMOP 060155Z AUTO 14004KT 10SM SCT050 SCT055 OVC075 00/M01 A2996 RMK AO2 T00031009


Station Type Date Time Source
KMOP Decoded METAR 2019/12/06 01:55 UTC NOAA

Mount Pleasant, Mount Pleasant Municipal Airport, MI, United States (KMOP) 43-37N 84-44W
Dec 05, 2019 - 08:55 PM EST / 2019.12.06 0155 UTC
Wind: from the SE (140 degrees) at 5 MPH (4 KT):0
Visibility: 10 mile(s):0
Sky conditions: overcast
Temperature: 32.5 F (0.3 C)
Windchill: 28 F (-2 C):1
Dew Point: 30.4 F (-0.9 C)
Relative Humidity: 91%
Pressure (altimeter): 29.96 in. Hg (1014 hPa)
ob: KMOP 060155Z AUTO 14004KT 10SM SCT050 SCT055 OVC075 00/M01 A2996 RMK AO2 T00031009
cycle: 2

Station Type Date Time Source
KMOP TAF UTC NOAA

Error!

Example: see airport list